sensor_id;sensor_type;location;lat;lon;timestamp;P1;durP1;ratioP1;P2;durP2;ratioP2
69748;SDS011;57019;52.354;6.584;2022-07-23T00:00:29;6.07;;;1.50;;
69748;SDS011;57019;52.354;6.584;2022-07-23T00:02:55;3.97;;;1.20;;
69748;SDS011;57019;52.354;6.584;2022-07-23T00:05:20;4.63;;;1.20;;
69748;SDS011;57019;52.354;6.584;2022-07-23T00:07:46;4.60;;;1.33;;
69748;SDS011;57019;52.354;6.584;2022-07-23T00:10:11;4.50;;;1.50;;
69748;SDS011;57019;52.354;6.584;2022-07-23T00:12:37;5.53;;;1.20;;
69748;SDS011;57019;52.354;6.584;2022-07-23T00:15:03;5.90;;;1.50;;
69748;SDS011;57019;52.354;6.584;2022-07-23T00:17:29;4.15;;;1.20;;
69748;SDS011;57019;52.354;6.584;2022-07-23T00:19:55;5.37;;;1.30;;
69748;SDS011;57019;52.354;6.584;2022-07-23T00:22:20;5.30;;;1.40;;
69748;SDS011;57019;52.354;6.584;2022-07-23T00:24:46;5.07;;;1.40;;
69748;SDS011;57019;52.354;6.584;2022-07-23T00:27:11;5.87;;;1.53;;
69748;SDS011;57019;52.354;6.584;2022-07-23T00:29:36;4.80;;;1.20;;
69748;SDS011;57019;52.354;6.584;2022-07-23T00:32:02;4.60;;;1.20;;
69748;SDS011;57019;52.354;6.584;2022-07-23T00:34:27;4.23;;;1.20;;
69748;SDS011;57019;52.354;6.584;2022-07-23T00:36:53;5.10;;;1.40;;
69748;SDS011;57019;52.354;6.584;2022-07-23T00:39:19;5.70;;;1.40;;
69748;SDS011;57019;52.354;6.584;2022-07-23T00:41:46;6.55;;;1.35;;
69748;SDS011;57019;52.354;6.584;2022-07-23T00:44:15;4.57;;;1.43;;
69748;SDS011;57019;52.354;6.584;2022-07-23T00:46:48;4.23;;;1.37;;
69748;SDS011;57019;52.354;6.584;2022-07-23T00:49:15;4.57;;;1.30;;
69748;SDS011;57019;52.354;6.584;2022-07-23T00:51:41;4.40;;;1.30;;
69748;SDS011;57019;52.354;6.584;2022-07-23T00:54:06;5.13;;;1.37;;
69748;SDS011;57019;52.354;6.584;2022-07-23T00:56:32;5.10;;;1.55;;
69748;SDS011;57019;52.354;6.584;2022-07-23T00:58:57;5.67;;;1.37;;
69748;SDS011;57019;52.354;6.584;2022-07-23T01:01:25;4.20;;;1.38;;
69748;SDS011;57019;52.354;6.584;2022-07-23T01:03:50;5.33;;;1.30;;
69748;SDS011;57019;52.354;6.584;2022-07-23T01:06:15;4.77;;;1.50;;
69748;SDS011;57019;52.354;6.584;2022-07-23T01:08:41;4.43;;;1.30;;
69748;SDS011;57019;52.354;6.584;2022-07-23T01:11:07;4.60;;;1.40;;
69748;SDS011;57019;52.354;6.584;2022-07-23T01:13:33;4.30;;;1.38;;
69748;SDS011;57019;52.354;6.584;2022-07-23T01:15:59;4.50;;;1.40;;
69748;SDS011;57019;52.354;6.584;2022-07-23T01:18:24;4.60;;;1.40;;
69748;SDS011;57019;52.354;6.584;2022-07-23T01:20:50;4.00;;;1.20;;
69748;SDS011;57019;52.354;6.584;2022-07-23T01:23:15;4.70;;;1.40;;
69748;SDS011;57019;52.354;6.584;2022-07-23T01:25:47;5.20;;;1.37;;
69748;SDS011;57019;52.354;6.584;2022-07-23T01:28:14;4.50;;;1.35;;
69748;SDS011;57019;52.354;6.584;2022-07-23T01:30:39;4.30;;;1.43;;
69748;SDS011;57019;52.354;6.584;2022-07-23T01:33:04;4.73;;;1.50;;
69748;SDS011;57019;52.354;6.584;2022-07-23T01:35:30;4.73;;;1.40;;
69748;SDS011;57019;52.354;6.584;2022-07-23T01:37:55;5.10;;;1.40;;
69748;SDS011;57019;52.354;6.584;2022-07-23T01:40:21;4.60;;;1.23;;
69748;SDS011;57019;52.354;6.584;2022-07-23T01:42:46;5.50;;;1.53;;
69748;SDS011;57019;52.354;6.584;2022-07-23T01:45:11;4.67;;;1.40;;
69748;SDS011;57019;52.354;6.584;2022-07-23T01:47:37;4.47;;;1.30;;
69748;SDS011;57019;52.354;6.584;2022-07-23T01:50:02;5.40;;;1.30;;
69748;SDS011;57019;52.354;6.584;2022-07-23T01:52:28;4.73;;;1.37;;
69748;SDS011;57019;52.354;6.584;2022-07-23T01:54:54;4.90;;;1.40;;
69748;SDS011;57019;52.354;6.584;2022-07-23T01:57:19;4.45;;;1.35;;
69748;SDS011;57019;52.354;6.584;2022-07-23T01:59:44;4.73;;;1.40;;
69748;SDS011;57019;52.354;6.584;2022-07-23T02:02:10;4.83;;;1.40;;
69748;SDS011;57019;52.354;6.584;2022-07-23T02:04:35;4.27;;;1.30;;
69748;SDS011;57019;52.354;6.584;2022-07-23T02:07:01;5.07;;;1.40;;
69748;SDS011;57019;52.354;6.584;2022-07-23T02:09:27;4.33;;;1.20;;
69748;SDS011;57019;52.354;6.584;2022-07-23T02:11:52;6.40;;;1.30;;
69748;SDS011;57019;52.354;6.584;2022-07-23T02:14:17;4.33;;;1.30;;
69748;SDS011;57019;52.354;6.584;2022-07-23T02:16:43;4.45;;;1.40;;
69748;SDS011;57019;52.354;6.584;2022-07-23T02:19:08;4.60;;;1.33;;
69748;SDS011;57019;52.354;6.584;2022-07-23T02:21:33;4.43;;;1.30;;
69748;SDS011;57019;52.354;6.584;2022-07-23T02:23:58;4.40;;;1.30;;
69748;SDS011;57019;52.354;6.584;2022-07-23T02:26:24;4.77;;;1.30;;
69748;SDS011;57019;52.354;6.584;2022-07-23T02:28:49;5.13;;;1.37;;
69748;SDS011;57019;52.354;6.584;2022-07-23T02:31:15;5.83;;;1.43;;
69748;SDS011;57019;52.354;6.584;2022-07-23T02:33:40;4.40;;;1.30;;
69748;SDS011;57019;52.354;6.584;2022-07-23T02:36:06;4.23;;;1.30;;
69748;SDS011;57019;52.354;6.584;2022-07-23T02:38:31;4.20;;;1.20;;
69748;SDS011;57019;52.354;6.584;2022-07-23T02:40:57;4.70;;;1.30;;
69748;SDS011;57019;52.354;6.584;2022-07-23T02:43:22;5.87;;;1.37;;
69748;SDS011;57019;52.354;6.584;2022-07-23T02:45:47;4.30;;;1.30;;
69748;SDS011;57019;52.354;6.584;2022-07-23T02:48:12;5.10;;;1.40;;
69748;SDS011;57019;52.354;6.584;2022-07-23T02:50:38;4.55;;;1.33;;
69748;SDS011;57019;52.354;6.584;2022-07-23T02:53:04;3.97;;;1.30;;
69748;SDS011;57019;52.354;6.584;2022-07-23T02:55:29;5.20;;;1.33;;
69748;SDS011;57019;52.354;6.584;2022-07-23T02:57:56;4.30;;;1.40;;
69748;SDS011;57019;52.354;6.584;2022-07-23T03:00:21;4.20;;;1.38;;
69748;SDS011;57019;52.354;6.584;2022-07-23T03:02:47;4.73;;;1.37;;
69748;SDS011;57019;52.354;6.584;2022-07-23T03:05:12;4.90;;;1.50;;
69748;SDS011;57019;52.354;6.584;2022-07-23T03:07:47;4.30;;;1.30;;
69748;SDS011;57019;52.354;6.584;2022-07-23T03:10:12;4.20;;;1.30;;
69748;SDS011;57019;52.354;6.584;2022-07-23T03:12:37;4.20;;;1.30;;
69748;SDS011;57019;52.354;6.584;2022-07-23T03:15:03;4.80;;;1.40;;
69748;SDS011;57019;52.354;6.584;2022-07-23T03:17:28;4.93;;;1.48;;
69748;SDS011;57019;52.354;6.584;2022-07-23T03:19:54;4.97;;;1.37;;
69748;SDS011;57019;52.354;6.584;2022-07-23T03:22:19;5.10;;;1.50;;
69748;SDS011;57019;52.354;6.584;2022-07-23T03:24:44;4.50;;;1.40;;
69748;SDS011;57019;52.354;6.584;2022-07-23T03:27:19;4.55;;;1.40;;
69748;SDS011;57019;52.354;6.584;2022-07-23T03:29:49;5.55;;;1.50;;
69748;SDS011;57019;52.354;6.584;2022-07-23T03:32:15;5.97;;;1.50;;
69748;SDS011;57019;52.354;6.584;2022-07-23T03:34:40;4.67;;;1.47;;
69748;SDS011;57019;52.354;6.584;2022-07-23T03:37:06;4.60;;;1.50;;
69748;SDS011;57019;52.354;6.584;2022-07-23T03:39:31;4.60;;;1.40;;
69748;SDS011;57019;52.354;6.584;2022-07-23T03:41:57;5.33;;;1.43;;
69748;SDS011;57019;52.354;6.584;2022-07-23T03:44:22;4.47;;;1.40;;
69748;SDS011;57019;52.354;6.584;2022-07-23T03:46:48;4.40;;;1.40;;
69748;SDS011;57019;52.354;6.584;2022-07-23T03:49:13;4.90;;;1.30;;
69748;SDS011;57019;52.354;6.584;2022-07-23T03:51:39;5.07;;;1.73;;
69748;SDS011;57019;52.354;6.584;2022-07-23T03:54:04;4.60;;;1.50;;
69748;SDS011;57019;52.354;6.584;2022-07-23T03:56:30;6.07;;;1.40;;
69748;SDS011;57019;52.354;6.584;2022-07-23T03:58:55;4.90;;;1.43;;
69748;SDS011;57019;52.354;6.584;2022-07-23T04:01:20;5.18;;;1.33;;
69748;SDS011;57019;52.354;6.584;2022-07-23T04:03:46;5.10;;;1.37;;
69748;SDS011;57019;52.354;6.584;2022-07-23T04:06:12;5.10;;;1.70;;
69748;SDS011;57019;52.354;6.584;2022-07-23T04:08:38;5.13;;;1.50;;
69748;SDS011;57019;52.354;6.584;2022-07-23T04:11:03;4.23;;;1.10;;
69748;SDS011;57019;52.354;6.584;2022-07-23T04:13:29;5.57;;;1.30;;
69748;SDS011;57019;52.354;6.584;2022-07-23T04:15:54;4.77;;;1.40;;
69748;SDS011;57019;52.354;6.584;2022-07-23T04:18:20;6.33;;;1.60;;
69748;SDS011;57019;52.354;6.584;2022-07-23T04:20:48;4.43;;;1.30;;
69748;SDS011;57019;52.354;6.584;2022-07-23T04:23:15;5.33;;;1.30;;
69748;SDS011;57019;52.354;6.584;2022-07-23T04:25:40;5.23;;;1.23;;
69748;SDS011;57019;52.354;6.584;2022-07-23T04:28:06;4.82;;;1.40;;
69748;SDS011;57019;52.354;6.584;2022-07-23T04:30:31;4.43;;;1.30;;
69748;SDS011;57019;52.354;6.584;2022-07-23T04:32:56;6.13;;;1.40;;
69748;SDS011;57019;52.354;6.584;2022-07-23T04:35:21;5.60;;;1.30;;
69748;SDS011;57019;52.354;6.584;2022-07-23T04:37:47;4.63;;;1.40;;
69748;SDS011;57019;52.354;6.584;2022-07-23T04:40:12;5.27;;;1.40;;
69748;SDS011;57019;52.354;6.584;2022-07-23T04:42:38;4.50;;;1.30;;
69748;SDS011;57019;52.354;6.584;2022-07-23T04:45:04;4.23;;;1.20;;
69748;SDS011;57019;52.354;6.584;2022-07-23T04:47:30;4.47;;;1.30;;
69748;SDS011;57019;52.354;6.584;2022-07-23T04:49:56;4.50;;;1.30;;
69748;SDS011;57019;52.354;6.584;2022-07-23T04:52:21;7.57;;;1.40;;
69748;SDS011;57019;52.354;6.584;2022-07-23T04:54:47;4.70;;;1.50;;
69748;SDS011;57019;52.354;6.584;2022-07-23T04:57:12;4.40;;;1.40;;
69748;SDS011;57019;52.354;6.584;2022-07-23T04:59:38;5.20;;;1.50;;
69748;SDS011;57019;52.354;6.584;2022-07-23T05:02:03;4.70;;;1.40;;
69748;SDS011;57019;52.354;6.584;2022-07-23T05:04:28;5.05;;;1.70;;
69748;SDS011;57019;52.354;6.584;2022-07-23T05:06:54;4.90;;;1.50;;
69748;SDS011;57019;52.354;6.584;2022-07-23T05:09:19;4.73;;;1.40;;
69748;SDS011;57019;52.354;6.584;2022-07-23T05:11:44;5.27;;;1.30;;
69748;SDS011;57019;52.354;6.584;2022-07-23T05:14:10;5.30;;;1.70;;
69748;SDS011;57019;52.354;6.584;2022-07-23T05:16:37;4.75;;;1.25;;
69748;SDS011;57019;52.354;6.584;2022-07-23T05:19:03;4.37;;;1.30;;
69748;SDS011;57019;52.354;6.584;2022-07-23T05:21:28;4.40;;;1.30;;
69748;SDS011;57019;52.354;6.584;2022-07-23T05:23:53;4.77;;;1.30;;
69748;SDS011;57019;52.354;6.584;2022-07-23T05:26:19;4.50;;;1.30;;
69748;SDS011;57019;52.354;6.584;2022-07-23T05:28:44;5.13;;;1.40;;
69748;SDS011;57019;52.354;6.584;2022-07-23T05:31:10;4.80;;;1.30;;
69748;SDS011;57019;52.354;6.584;2022-07-23T05:33:36;6.38;;;1.40;;
69748;SDS011;57019;52.354;6.584;2022-07-23T05:36:02;3.93;;;1.30;;
69748;SDS011;57019;52.354;6.584;2022-07-23T05:38:28;4.78;;;1.27;;
69748;SDS011;57019;52.354;6.584;2022-07-23T05:40:54;4.65;;;1.40;;
69748;SDS011;57019;52.354;6.584;2022-07-23T05:43:20;4.63;;;1.30;;
69748;SDS011;57019;52.354;6.584;2022-07-23T05:45:45;4.63;;;1.30;;
69748;SDS011;57019;52.354;6.584;2022-07-23T05:48:10;5.07;;;1.40;;
69748;SDS011;57019;52.354;6.584;2022-07-23T05:50:36;5.03;;;1.20;;
69748;SDS011;57019;52.354;6.584;2022-07-23T05:53:01;4.30;;;1.30;;
69748;SDS011;57019;52.354;6.584;2022-07-23T05:55:26;6.07;;;1.23;;
69748;SDS011;57019;52.354;6.584;2022-07-23T05:57:54;5.40;;;1.40;;
69748;SDS011;57019;52.354;6.584;2022-07-23T06:00:20;5.15;;;1.30;;
69748;SDS011;57019;52.354;6.584;2022-07-23T06:02:46;4.33;;;1.20;;
69748;SDS011;57019;52.354;6.584;2022-07-23T06:05:11;4.30;;;1.30;;
69748;SDS011;57019;52.354;6.584;2022-07-23T06:07:36;4.40;;;1.10;;
69748;SDS011;57019;52.354;6.584;2022-07-23T06:10:02;3.87;;;1.10;;
69748;SDS011;57019;52.354;6.584;2022-07-23T06:12:28;3.80;;;1.10;;
69748;SDS011;57019;52.354;6.584;2022-07-23T06:14:54;3.80;;;1.10;;
69748;SDS011;57019;52.354;6.584;2022-07-23T06:17:19;4.03;;;1.30;;
69748;SDS011;57019;52.354;6.584;2022-07-23T06:19:45;3.90;;;1.10;;
69748;SDS011;57019;52.354;6.584;2022-07-23T06:22:10;3.83;;;1.10;;
69748;SDS011;57019;52.354;6.584;2022-07-23T06:24:36;3.83;;;1.07;;
69748;SDS011;57019;52.354;6.584;2022-07-23T06:27:01;4.00;;;1.10;;
69748;SDS011;57019;52.354;6.584;2022-07-23T06:29:26;4.20;;;1.20;;
69748;SDS011;57019;52.354;6.584;2022-07-23T06:31:52;4.40;;;1.30;;
69748;SDS011;57019;52.354;6.584;2022-07-23T06:34:17;4.10;;;1.00;;
69748;SDS011;57019;52.354;6.584;2022-07-23T06:36:42;5.50;;;1.20;;
69748;SDS011;57019;52.354;6.584;2022-07-23T06:39:08;3.97;;;1.20;;
69748;SDS011;57019;52.354;6.584;2022-07-23T06:41:33;3.67;;;1.10;;
69748;SDS011;57019;52.354;6.584;2022-07-23T06:43:58;4.17;;;1.20;;
69748;SDS011;57019;52.354;6.584;2022-07-23T06:46:24;4.83;;;1.20;;
69748;SDS011;57019;52.354;6.584;2022-07-23T06:48:50;3.92;;;1.05;;
69748;SDS011;57019;52.354;6.584;2022-07-23T06:51:15;4.73;;;1.30;;
69748;SDS011;57019;52.354;6.584;2022-07-23T06:53:41;4.78;;;1.30;;
69748;SDS011;57019;52.354;6.584;2022-07-23T06:56:06;4.80;;;1.40;;
69748;SDS011;57019;52.354;6.584;2022-07-23T06:58:31;5.97;;;1.53;;
69748;SDS011;57019;52.354;6.584;2022-07-23T07:00:57;6.03;;;1.50;;
69748;SDS011;57019;52.354;6.584;2022-07-23T07:03:23;6.20;;;1.30;;
69748;SDS011;57019;52.354;6.584;2022-07-23T07:05:48;5.30;;;1.40;;
69748;SDS011;57019;52.354;6.584;2022-07-23T07:08:14;6.63;;;1.40;;
69748;SDS011;57019;52.354;6.584;2022-07-23T07:10:40;6.57;;;1.40;;
69748;SDS011;57019;52.354;6.584;2022-07-23T07:13:05;4.95;;;1.40;;
69748;SDS011;57019;52.354;6.584;2022-07-23T07:15:31;4.83;;;1.30;;
69748;SDS011;57019;52.354;6.584;2022-07-23T07:17:56;5.30;;;1.53;;
69748;SDS011;57019;52.354;6.584;2022-07-23T07:20:21;6.97;;;1.53;;
69748;SDS011;57019;52.354;6.584;2022-07-23T07:22:48;4.70;;;1.45;;
69748;SDS011;57019;52.354;6.584;2022-07-23T07:25:13;8.67;;;1.63;;
69748;SDS011;57019;52.354;6.584;2022-07-23T07:27:39;4.30;;;1.20;;
69748;SDS011;57019;52.354;6.584;2022-07-23T07:30:05;4.50;;;1.23;;
69748;SDS011;57019;52.354;6.584;2022-07-23T07:32:32;5.53;;;1.30;;
69748;SDS011;57019;52.354;6.584;2022-07-23T07:34:58;6.30;;;1.40;;
69748;SDS011;57019;52.354;6.584;2022-07-23T07:37:23;5.45;;;1.40;;
69748;SDS011;57019;52.354;6.584;2022-07-23T07:39:49;5.63;;;1.47;;
69748;SDS011;57019;52.354;6.584;2022-07-23T07:42:14;5.83;;;1.40;;
69748;SDS011;57019;52.354;6.584;2022-07-23T07:44:39;5.33;;;1.30;;
69748;SDS011;57019;52.354;6.584;2022-07-23T07:47:05;4.20;;;1.20;;
69748;SDS011;57019;52.354;6.584;2022-07-23T07:49:30;5.13;;;1.50;;
69748;SDS011;57019;52.354;6.584;2022-07-23T07:51:55;5.27;;;1.30;;
69748;SDS011;57019;52.354;6.584;2022-07-23T07:54:21;4.40;;;1.30;;
69748;SDS011;57019;52.354;6.584;2022-07-23T07:56:46;6.00;;;1.20;;
69748;SDS011;57019;52.354;6.584;2022-07-23T07:59:12;5.13;;;1.30;;
69748;SDS011;57019;52.354;6.584;2022-07-23T08:01:39;6.78;;;1.30;;
69748;SDS011;57019;52.354;6.584;2022-07-23T08:04:05;4.97;;;1.40;;
69748;SDS011;57019;52.354;6.584;2022-07-23T08:06:30;5.40;;;1.20;;
69748;SDS011;57019;52.354;6.584;2022-07-23T08:08:55;6.63;;;1.50;;
69748;SDS011;57019;52.354;6.584;2022-07-23T08:11:21;5.20;;;1.23;;
69748;SDS011;57019;52.354;6.584;2022-07-23T08:13:46;5.40;;;1.50;;
69748;SDS011;57019;52.354;6.584;2022-07-23T08:16:11;6.80;;;1.30;;
69748;SDS011;57019;52.354;6.584;2022-07-23T08:18:37;6.07;;;1.40;;
69748;SDS011;57019;52.354;6.584;2022-07-23T08:21:02;7.20;;;1.40;;
69748;SDS011;57019;52.354;6.584;2022-07-23T08:23:30;4.90;;;1.40;;
69748;SDS011;57019;52.354;6.584;2022-07-23T08:25:56;4.32;;;1.20;;
69748;SDS011;57019;52.354;6.584;2022-07-23T08:28:22;6.83;;;1.50;;
69748;SDS011;57019;52.354;6.584;2022-07-23T08:30:47;4.75;;;1.20;;
69748;SDS011;57019;52.354;6.584;2022-07-23T08:33:16;6.17;;;1.20;;
69748;SDS011;57019;52.354;6.584;2022-07-23T08:35:43;6.82;;;1.10;;
69748;SDS011;57019;52.354;6.584;2022-07-23T08:38:11;5.00;;;1.30;;
69748;SDS011;57019;52.354;6.584;2022-07-23T08:40:43;4.97;;;1.50;;
69748;SDS011;57019;52.354;6.584;2022-07-23T08:43:11;6.18;;;1.30;;
69748;SDS011;57019;52.354;6.584;2022-07-23T08:45:39;5.05;;;1.30;;
69748;SDS011;57019;52.354;6.584;2022-07-23T08:48:16;5.03;;;1.20;;
69748;SDS011;57019;52.354;6.584;2022-07-23T08:50:44;5.10;;;1.17;;
69748;SDS011;57019;52.354;6.584;2022-07-23T08:53:29;5.77;;;1.30;;
69748;SDS011;57019;52.354;6.584;2022-07-23T08:55:57;4.60;;;1.10;;
69748;SDS011;57019;52.354;6.584;2022-07-23T08:58:23;5.90;;;1.40;;
69748;SDS011;57019;52.354;6.584;2022-07-23T09:00:50;4.65;;;1.20;;
69748;SDS011;57019;52.354;6.584;2022-07-23T09:03:17;3.80;;;1.10;;
69748;SDS011;57019;52.354;6.584;2022-07-23T09:05:44;4.05;;;1.10;;
69748;SDS011;57019;52.354;6.584;2022-07-23T09:08:18;3.88;;;1.10;;
69748;SDS011;57019;52.354;6.584;2022-07-23T09:13:26;4.80;;;1.40;;
69748;SDS011;57019;52.354;6.584;2022-07-23T09:15:52;4.53;;;1.23;;
69748;SDS011;57019;52.354;6.584;2022-07-23T09:18:19;4.47;;;1.20;;
69748;SDS011;57019;52.354;6.584;2022-07-23T09:20:44;6.57;;;1.50;;
69748;SDS011;57019;52.354;6.584;2022-07-23T09:23:10;6.32;;;1.45;;
69748;SDS011;57019;52.354;6.584;2022-07-23T09:25:35;4.53;;;1.13;;
69748;SDS011;57019;52.354;6.584;2022-07-23T09:28:01;4.75;;;1.30;;
69748;SDS011;57019;52.354;6.584;2022-07-23T09:30:31;5.13;;;1.47;;
69748;SDS011;57019;52.354;6.584;2022-07-23T09:33:07;4.70;;;1.40;;
69748;SDS011;57019;52.354;6.584;2022-07-23T09:35:46;5.15;;;1.38;;
69748;SDS011;57019;52.354;6.584;2022-07-23T09:38:12;5.35;;;1.42;;
69748;SDS011;57019;52.354;6.584;2022-07-23T09:40:38;7.55;;;1.50;;
69748;SDS011;57019;52.354;6.584;2022-07-23T09:43:03;6.20;;;1.30;;
69748;SDS011;57019;52.354;6.584;2022-07-23T09:45:29;5.37;;;1.33;;
69748;SDS011;57019;52.354;6.584;2022-07-23T09:50:55;4.43;;;1.17;;
69748;SDS011;57019;52.354;6.584;2022-07-23T09:53:27;4.25;;;1.15;;
69748;SDS011;57019;52.354;6.584;2022-07-23T09:55:55;4.17;;;1.10;;
69748;SDS011;57019;52.354;6.584;2022-07-23T09:58:25;7.25;;;1.60;;
69748;SDS011;57019;52.354;6.584;2022-07-23T10:00:53;5.35;;;1.25;;
69748;SDS011;57019;52.354;6.584;2022-07-23T10:03:19;4.57;;;1.30;;
69748;SDS011;57019;52.354;6.584;2022-07-23T10:05:45;4.22;;;1.10;;
69748;SDS011;57019;52.354;6.584;2022-07-23T10:08:12;5.40;;;1.23;;
69748;SDS011;57019;52.354;6.584;2022-07-23T10:10:41;6.85;;;1.33;;
69748;SDS011;57019;52.354;6.584;2022-07-23T10:13:06;7.22;;;1.60;;
69748;SDS011;57019;52.354;6.584;2022-07-23T10:16:07;6.90;;;1.50;;
69748;SDS011;57019;52.354;6.584;2022-07-23T10:18:33;5.07;;;1.30;;
69748;SDS011;57019;52.354;6.584;2022-07-23T10:20:58;5.00;;;1.40;;
69748;SDS011;57019;52.354;6.584;2022-07-23T10:23:47;4.35;;;1.35;;
69748;SDS011;57019;52.354;6.584;2022-07-23T10:26:24;5.55;;;1.50;;
69748;SDS011;57019;52.354;6.584;2022-07-23T10:29:24;6.35;;;1.83;;
69748;SDS011;57019;52.354;6.584;2022-07-23T10:32:00;8.63;;;3.70;;
69748;SDS011;57019;52.354;6.584;2022-07-23T10:34:43;7.25;;;2.60;;
69748;SDS011;57019;52.354;6.584;2022-07-23T10:37:14;6.65;;;1.92;;
69748;SDS011;57019;52.354;6.584;2022-07-23T10:40:07;5.95;;;1.83;;
69748;SDS011;57019;52.354;6.584;2022-07-23T10:42:54;6.00;;;1.58;;
69748;SDS011;57019;52.354;6.584;2022-07-23T10:48:13;6.93;;;1.80;;
69748;SDS011;57019;52.354;6.584;2022-07-23T10:59:30;5.47;;;1.70;;
69748;SDS011;57019;52.354;6.584;2022-07-23T11:02:17;5.15;;;1.60;;
69748;SDS011;57019;52.354;6.584;2022-07-23T11:04:48;5.23;;;1.43;;
69748;SDS011;57019;52.354;6.584;2022-07-23T11:07:16;8.20;;;1.75;;
69748;SDS011;57019;52.354;6.584;2022-07-23T11:09:42;4.70;;;1.50;;
69748;SDS011;57019;52.354;6.584;2022-07-23T11:15:05;5.20;;;1.63;;
69748;SDS011;57019;52.354;6.584;2022-07-23T11:17:37;6.30;;;1.75;;
69748;SDS011;57019;52.354;6.584;2022-07-23T11:25:07;7.73;;;1.80;;
69748;SDS011;57019;52.354;6.584;2022-07-23T11:27:36;5.65;;;1.60;;
69748;SDS011;57019;52.354;6.584;2022-07-23T11:30:02;5.30;;;1.50;;
69748;SDS011;57019;52.354;6.584;2022-07-23T11:32:28;5.85;;;1.88;;
69748;SDS011;57019;52.354;6.584;2022-07-23T11:34:56;6.30;;;1.75;;
69748;SDS011;57019;52.354;6.584;2022-07-23T11:37:32;5.57;;;1.50;;
69748;SDS011;57019;52.354;6.584;2022-07-23T11:39:58;4.65;;;1.48;;
69748;SDS011;57019;52.354;6.584;2022-07-23T11:42:24;5.07;;;1.70;;
69748;SDS011;57019;52.354;6.584;2022-07-23T11:44:50;6.60;;;1.70;;
69748;SDS011;57019;52.354;6.584;2022-07-23T11:47:20;6.57;;;1.77;;
69748;SDS011;57019;52.354;6.584;2022-07-23T11:49:56;8.70;;;1.80;;
69748;SDS011;57019;52.354;6.584;2022-07-23T11:52:23;5.73;;;1.80;;
69748;SDS011;57019;52.354;6.584;2022-07-23T11:54:51;5.10;;;1.65;;
69748;SDS011;57019;52.354;6.584;2022-07-23T11:57:19;6.40;;;1.92;;
69748;SDS011;57019;52.354;6.584;2022-07-23T11:59:50;7.40;;;1.95;;
69748;SDS011;57019;52.354;6.584;2022-07-23T12:02:19;5.78;;;1.92;;
69748;SDS011;57019;52.354;6.584;2022-07-23T12:04:45;5.03;;;1.73;;
69748;SDS011;57019;52.354;6.584;2022-07-23T12:09:59;6.47;;;1.88;;
69748;SDS011;57019;52.354;6.584;2022-07-23T12:12:26;6.22;;;1.63;;
69748;SDS011;57019;52.354;6.584;2022-07-23T12:14:53;5.17;;;1.57;;
69748;SDS011;57019;52.354;6.584;2022-07-23T12:17:29;5.50;;;1.83;;
69748;SDS011;57019;52.354;6.584;2022-07-23T12:19:57;6.68;;;1.73;;
69748;SDS011;57019;52.354;6.584;2022-07-23T12:22:23;5.25;;;1.65;;
69748;SDS011;57019;52.354;6.584;2022-07-23T12:27:22;5.33;;;1.77;;
69748;SDS011;57019;52.354;6.584;2022-07-23T12:29:48;5.38;;;1.58;;
69748;SDS011;57019;52.354;6.584;2022-07-23T12:32:18;5.65;;;1.60;;
69748;SDS011;57019;52.354;6.584;2022-07-23T12:35:01;6.43;;;1.77;;
69748;SDS011;57019;52.354;6.584;2022-07-23T12:37:32;7.97;;;1.90;;
69748;SDS011;57019;52.354;6.584;2022-07-23T12:40:18;5.32;;;1.70;;
69748;SDS011;57019;52.354;6.584;2022-07-23T12:42:49;6.15;;;1.60;;
69748;SDS011;57019;52.354;6.584;2022-07-23T12:45:17;6.13;;;1.70;;
69748;SDS011;57019;52.354;6.584;2022-07-23T12:48:03;5.05;;;1.85;;
69748;SDS011;57019;52.354;6.584;2022-07-23T12:50:36;7.47;;;1.90;;
69748;SDS011;57019;52.354;6.584;2022-07-23T12:53:40;6.18;;;1.85;;
69748;SDS011;57019;52.354;6.584;2022-07-23T12:56:36;7.30;;;1.83;;
69748;SDS011;57019;52.354;6.584;2022-07-23T12:59:13;6.68;;;2.00;;
69748;SDS011;57019;52.354;6.584;2022-07-23T13:01:45;5.65;;;1.85;;
69748;SDS011;57019;52.354;6.584;2022-07-23T13:04:19;6.27;;;1.80;;
69748;SDS011;57019;52.354;6.584;2022-07-23T13:06:50;6.25;;;2.05;;
69748;SDS011;57019;52.354;6.584;2022-07-23T13:09:33;6.00;;;1.80;;
69748;SDS011;57019;52.354;6.584;2022-07-23T13:11:59;5.07;;;1.80;;
69748;SDS011;57019;52.354;6.584;2022-07-23T13:14:25;5.00;;;2.00;;
69748;SDS011;57019;52.354;6.584;2022-07-23T13:16:52;5.72;;;2.00;;
69748;SDS011;57019;52.354;6.584;2022-07-23T13:19:18;5.65;;;1.70;;
69748;SDS011;57019;52.354;6.584;2022-07-23T13:21:44;5.40;;;1.92;;
69748;SDS011;57019;52.354;6.584;2022-07-23T13:24:10;5.93;;;2.20;;
69748;SDS011;57019;52.354;6.584;2022-07-23T13:26:37;5.10;;;1.73;;
69748;SDS011;57019;52.354;6.584;2022-07-23T13:29:03;5.47;;;1.90;;
69748;SDS011;57019;52.354;6.584;2022-07-23T13:31:29;7.45;;;2.10;;
69748;SDS011;57019;52.354;6.584;2022-07-23T13:33:55;7.27;;;2.00;;
69748;SDS011;57019;52.354;6.584;2022-07-23T13:36:20;5.40;;;1.90;;
69748;SDS011;57019;52.354;6.584;2022-07-23T13:38:45;6.13;;;1.93;;
69748;SDS011;57019;52.354;6.584;2022-07-23T13:41:11;5.60;;;1.85;;
69748;SDS011;57019;52.354;6.584;2022-07-23T13:43:36;6.47;;;2.10;;
69748;SDS011;57019;52.354;6.584;2022-07-23T13:46:02;8.17;;;2.07;;
69748;SDS011;57019;52.354;6.584;2022-07-23T13:48:27;6.40;;;2.10;;
69748;SDS011;57019;52.354;6.584;2022-07-23T13:50:54;5.90;;;1.90;;
69748;SDS011;57019;52.354;6.584;2022-07-23T13:53:21;6.40;;;2.20;;
69748;SDS011;57019;52.354;6.584;2022-07-23T13:55:48;6.20;;;2.00;;
69748;SDS011;57019;52.354;6.584;2022-07-23T13:58:14;6.68;;;2.00;;
69748;SDS011;57019;52.354;6.584;2022-07-23T14:00:42;6.05;;;2.10;;
69748;SDS011;57019;52.354;6.584;2022-07-23T14:03:09;6.20;;;1.97;;
69748;SDS011;57019;52.354;6.584;2022-07-23T14:05:35;5.68;;;1.80;;
69748;SDS011;57019;52.354;6.584;2022-07-23T14:08:01;7.30;;;2.10;;
69748;SDS011;57019;52.354;6.584;2022-07-23T14:10:26;6.90;;;2.17;;
69748;SDS011;57019;52.354;6.584;2022-07-23T14:12:52;5.30;;;1.83;;
69748;SDS011;57019;52.354;6.584;2022-07-23T14:15:20;5.40;;;1.65;;
69748;SDS011;57019;52.354;6.584;2022-07-23T14:17:47;6.10;;;1.80;;
69748;SDS011;57019;52.354;6.584;2022-07-23T14:20:13;5.57;;;1.80;;
69748;SDS011;57019;52.354;6.584;2022-07-23T14:22:39;7.10;;;2.28;;
69748;SDS011;57019;52.354;6.584;2022-07-23T14:25:05;4.83;;;1.90;;
69748;SDS011;57019;52.354;6.584;2022-07-23T14:27:32;6.13;;;1.83;;
69748;SDS011;57019;52.354;6.584;2022-07-23T14:29:57;6.40;;;1.90;;
69748;SDS011;57019;52.354;6.584;2022-07-23T14:32:23;6.43;;;2.00;;
69748;SDS011;57019;52.354;6.584;2022-07-23T14:34:49;6.85;;;2.08;;
69748;SDS011;57019;52.354;6.584;2022-07-23T14:37:15;5.43;;;1.67;;
69748;SDS011;57019;52.354;6.584;2022-07-23T14:39:41;5.80;;;1.80;;
69748;SDS011;57019;52.354;6.584;2022-07-23T14:42:07;7.20;;;2.00;;
69748;SDS011;57019;52.354;6.584;2022-07-23T14:44:33;5.40;;;1.83;;
69748;SDS011;57019;52.354;6.584;2022-07-23T14:47:00;6.28;;;1.90;;
69748;SDS011;57019;52.354;6.584;2022-07-23T14:49:26;6.43;;;2.00;;
69748;SDS011;57019;52.354;6.584;2022-07-23T14:51:52;9.13;;;2.20;;
69748;SDS011;57019;52.354;6.584;2022-07-23T14:54:17;7.45;;;1.98;;
69748;SDS011;57019;52.354;6.584;2022-07-23T14:56:44;7.37;;;2.00;;
69748;SDS011;57019;52.354;6.584;2022-07-23T14:59:10;6.80;;;2.10;;
69748;SDS011;57019;52.354;6.584;2022-07-23T15:01:35;6.67;;;2.03;;
69748;SDS011;57019;52.354;6.584;2022-07-23T15:04:01;6.50;;;2.20;;
69748;SDS011;57019;52.354;6.584;2022-07-23T15:06:27;7.10;;;2.10;;
69748;SDS011;57019;52.354;6.584;2022-07-23T15:08:52;7.13;;;2.38;;
69748;SDS011;57019;52.354;6.584;2022-07-23T15:11:18;6.63;;;2.20;;
69748;SDS011;57019;52.354;6.584;2022-07-23T15:13:43;8.53;;;2.37;;
69748;SDS011;57019;52.354;6.584;2022-07-23T15:16:09;9.23;;;2.20;;
69748;SDS011;57019;52.354;6.584;2022-07-23T15:18:35;7.00;;;2.42;;